createdAt,value
2018-07-20T00:00:32.737Z,72.5
2018-07-20T00:01:34.392Z,71.4
2018-07-20T00:02:36.113Z,72.2
2018-07-20T00:03:37.776Z,72.4
2018-07-20T00:04:39.456Z,72.5
2018-07-20T00:05:41.203Z,72.4
2018-07-20T00:06:42.902Z,72.4
2018-07-20T00:07:44.549Z,72.6
2018-07-20T00:08:46.207Z,72.6
2018-07-20T00:09:47.860Z,72.2
2018-07-20T00:10:49.519Z,72.8
2018-07-20T00:11:51.230Z,71.8
2018-07-20T00:12:52.904Z,71.8
2018-07-20T00:13:54.594Z,72.8
2018-07-20T00:14:56.327Z,72.5
2018-07-20T00:15:57.980Z,72.7
2018-07-20T00:16:59.651Z,72.4
2018-07-20T00:18:01.398Z,72.7
2018-07-20T00:19:03.085Z,73.3
2018-07-20T00:20:04.790Z,72.9
2018-07-20T00:21:06.438Z,72.6
2018-07-20T00:22:08.160Z,72.9
2018-07-20T00:23:09.872Z,73.2
2018-07-20T00:24:11.626Z,72.5
2018-07-20T00:25:13.301Z,72.4
2018-07-20T00:26:14.976Z,72.4
2018-07-20T00:27:16.738Z,71.5
2018-07-20T00:28:18.431Z,72.5
2018-07-20T00:29:20.164Z,71.8
2018-07-20T00:30:21.945Z,71.7
2018-07-20T00:31:23.644Z,71.0
2018-07-20T00:32:25.309Z,70.6
2018-07-20T00:33:27.027Z,71.1
2018-07-20T00:34:28.659Z,70.9
2018-07-20T00:35:30.232Z,70.5
2018-07-20T00:36:32.004Z,70.6
2018-07-20T00:37:33.742Z,70.2
2018-07-20T00:38:35.474Z,70.1
2018-07-20T00:39:37.255Z,70.7
2018-07-20T00:40:38.953Z,71.4
2018-07-20T00:41:40.614Z,71.6
2018-07-20T00:42:42.347Z,71.7
2018-07-20T00:43:44.024Z,72.5
2018-07-20T00:44:45.734Z,72.6
2018-07-20T00:45:47.393Z,72.5
2018-07-20T00:46:49.127Z,72.8
2018-07-20T00:47:50.849Z,72.6
2018-07-20T00:48:52.638Z,72.5
2018-07-20T00:49:54.939Z,72.4
2018-07-20T00:50:56.649Z,72.6
2018-07-20T00:51:58.302Z,73.3
2018-07-20T00:53:00.023Z,73.3
2018-07-20T00:54:01.713Z,73.6
2018-07-20T00:55:03.334Z,73.8
2018-07-20T00:56:05.053Z,74.2
2018-07-20T00:57:06.724Z,74.1
2018-07-20T00:58:08.422Z,73.3
2018-07-20T00:59:10.157Z,73.9
2018-07-20T01:00:11.858Z,74.1
2018-07-20T01:01:13.538Z,74.3
2018-07-20T01:02:15.192Z,73.7
2018-07-20T01:03:16.834Z,74.0
2018-07-20T01:04:18.542Z,74.6
2018-07-20T01:05:20.165Z,75.0
2018-07-20T01:06:21.864Z,74.6
2018-07-20T01:07:23.562Z,76.3
2018-07-20T01:08:25.298Z,75.8
2018-07-20T01:09:26.917Z,76.0
2018-07-20T01:10:28.532Z,75.5
2018-07-20T01:11:30.334Z,75.8
2018-07-20T01:12:32.044Z,75.9
2018-07-20T01:13:33.724Z,75.9
2018-07-20T01:14:35.509Z,76.6
2018-07-20T01:15:37.238Z,76.0
2018-07-20T01:16:38.856Z,76.0
2018-07-20T01:17:40.587Z,76.3
2018-07-20T01:18:42.340Z,76.8
2018-07-20T01:19:44.085Z,77.2
2018-07-20T01:20:45.828Z,77.4
2018-07-20T01:21:47.499Z,77.1
2018-07-20T01:22:50.097Z,77.4
2018-07-20T01:23:51.795Z,77.6
2018-07-20T01:24:53.489Z,77.7
2018-07-20T01:25:55.127Z,77.7
2018-07-20T01:26:56.767Z,76.9
2018-07-20T01:27:58.490Z,76.6
2018-07-20T01:29:00.187Z,76.5
2018-07-20T01:30:01.874Z,76.5
2018-07-20T01:31:03.629Z,76.4
2018-07-20T01:32:05.326Z,76.2
2018-07-20T01:33:07.066Z,76.0
2018-07-20T01:34:08.774Z,75.6
2018-07-20T01:35:10.406Z,75.6
2018-07-20T01:36:12.116Z,76.2
2018-07-20T01:37:13.816Z,76.0
2018-07-20T01:38:15.515Z,75.7
2018-07-20T01:39:17.196Z,75.4
2018-07-20T01:40:18.929Z,75.9
2018-07-20T01:41:20.682Z,76.0
2018-07-20T01:42:22.379Z,75.9
2018-07-20T01:43:24.049Z,76.0
2018-07-20T01:44:25.679Z,76.4
2018-07-20T01:45:27.350Z,77.5
2018-07-20T01:46:29.028Z,77.9
2018-07-20T01:47:30.725Z,77.8
2018-07-20T01:48:32.366Z,77.5
2018-07-20T01:49:34.120Z,77.1
2018-07-20T01:50:35.865Z,77.6
2018-07-20T01:51:37.574Z,77.8
2018-07-20T01:52:39.296Z,77.4
2018-07-20T01:53:40.937Z,78.0
2018-07-20T01:54:42.645Z,78.4
2018-07-20T01:55:44.412Z,78.6
2018-07-20T01:56:45.986Z,78.4
2018-07-20T01:57:47.612Z,78.9
2018-07-20T01:58:49.250Z,79.2
2018-07-20T01:59:51.006Z,78.6
2018-07-20T02:00:52.660Z,79.2
2018-07-20T02:01:54.319Z,79.3
2018-07-20T02:02:56.089Z,79.6
2018-07-20T02:03:57.696Z,78.5
2018-07-20T02:04:59.426Z,78.8
2018-07-20T02:06:01.144Z,78.9
2018-07-20T02:07:02.873Z,79.3
2018-07-20T02:08:04.589Z,79.3
2018-07-20T02:09:06.231Z,79.3
2018-07-20T02:10:07.931Z,78.7
2018-07-20T02:11:09.681Z,79.6
2018-07-20T02:12:11.361Z,79.2
2018-07-20T02:13:13.079Z,79.1
2018-07-20T02:14:14.787Z,78.5
2018-07-20T02:15:16.482Z,77.9
2018-07-20T02:16:18.188Z,78.4
2018-07-20T02:17:19.824Z,78.0
2018-07-20T02:18:21.511Z,77.8
2018-07-20T02:19:23.221Z,78.6
2018-07-20T02:20:24.852Z,78.5
2018-07-20T02:21:26.577Z,79.4
2018-07-20T02:22:28.246Z,79.6
2018-07-20T02:23:29.987Z,79.2
2018-07-20T02:24:31.704Z,79.1
2018-07-20T02:25:33.491Z,79.1
2018-07-20T02:26:35.187Z,79.6
2018-07-20T02:27:36.911Z,80.1
2018-07-20T02:28:38.656Z,80.4
2018-07-20T02:29:40.394Z,79.8
2018-07-20T02:30:42.033Z,80.0
2018-07-20T02:31:43.756Z,79.8
2018-07-20T02:32:45.560Z,80.0
2018-07-20T02:33:47.188Z,80.5
2018-07-20T02:34:48.912Z,80.3
2018-07-20T02:35:50.567Z,80.9
2018-07-20T02:36:52.202Z,80.5
2018-07-20T02:37:53.913Z,80.8
2018-07-20T02:38:55.654Z,80.5
2018-07-20T02:39:57.346Z,80.5
2018-07-20T02:40:59.020Z,80.7
2018-07-20T02:42:00.795Z,80.0
2018-07-20T02:43:02.546Z,80.6
2018-07-20T02:44:04.140Z,81.5
2018-07-20T02:45:05.818Z,81.2
2018-07-20T02:46:07.536Z,81.2
2018-07-20T02:47:09.220Z,81.6
2018-07-20T02:48:10.908Z,81.0
2018-07-20T02:49:12.578Z,81.2
2018-07-20T02:50:14.308Z,81.4
2018-07-20T02:51:16.035Z,81.3
2018-07-20T02:52:17.693Z,81.5
2018-07-20T02:53:19.361Z,81.6
2018-07-20T02:54:21.090Z,81.5
2018-07-20T02:55:22.714Z,81.6
2018-07-20T02:56:24.418Z,81.5
2018-07-20T02:57:26.125Z,81.7
2018-07-20T02:58:27.872Z,81.7
2018-07-20T02:59:29.595Z,82.2
2018-07-20T03:00:31.363Z,82.1
2018-07-20T03:01:33.041Z,81.8
2018-07-20T03:02:34.830Z,81.4
2018-07-20T03:03:36.502Z,81.6
2018-07-20T03:04:38.242Z,81.0
2018-07-20T03:05:39.985Z,81.7
2018-07-20T03:06:41.655Z,81.4
2018-07-20T03:07:43.346Z,81.5
2018-07-20T03:08:44.966Z,81.8
2018-07-20T03:09:46.605Z,81.9
2018-07-20T03:10:48.287Z,82.2
2018-07-20T03:11:49.962Z,82.1
2018-07-20T03:12:51.662Z,81.6
2018-07-20T03:13:53.364Z,81.5
2018-07-20T03:14:55.121Z,81.8
2018-07-20T03:15:56.713Z,81.6
2018-07-20T03:16:58.357Z,81.8
2018-07-20T03:17:59.978Z,81.8
2018-07-20T03:19:01.628Z,81.9
2018-07-20T03:20:03.338Z,82.3
2018-07-20T03:21:05.007Z,82.3
2018-07-20T03:22:06.697Z,82.5
2018-07-20T03:23:08.327Z,82.5
2018-07-20T03:24:09.980Z,82.4
2018-07-20T03:25:11.649Z,81.9
2018-07-20T03:26:13.373Z,81.4
2018-07-20T03:27:15.116Z,81.7
2018-07-20T03:28:16.904Z,81.8
2018-07-20T03:29:18.599Z,82.5
2018-07-20T03:30:20.314Z,82.6
2018-07-20T03:31:22.015Z,82.5
2018-07-20T03:32:23.742Z,82.8
2018-07-20T03:33:25.431Z,82.4
2018-07-20T03:34:27.124Z,82.7
2018-07-20T03:35:28.842Z,82.7
2018-07-20T03:36:30.567Z,82.6
2018-07-20T03:37:32.282Z,82.9
2018-07-20T03:38:33.999Z,83.2
2018-07-20T03:39:35.746Z,83.0
2018-07-20T03:40:37.491Z,83.0
2018-07-20T03:41:39.206Z,83.2
2018-07-20T03:42:40.831Z,83.3
2018-07-20T03:43:42.523Z,83.8
2018-07-20T03:44:44.175Z,83.7
2018-07-20T03:45:45.953Z,83.6
2018-07-20T03:46:47.670Z,83.9
2018-07-20T03:47:49.327Z,83.6
2018-07-20T03:48:51.025Z,84.2
2018-07-20T03:49:52.679Z,83.7
2018-07-20T03:50:54.332Z,83.5
2018-07-20T03:51:56.058Z,83.7
2018-07-20T03:52:57.863Z,83.7
2018-07-20T03:53:59.625Z,83.5
2018-07-20T03:55:01.311Z,83.1
2018-07-20T03:56:03.048Z,84.1
2018-07-20T03:57:04.768Z,83.6
2018-07-20T03:58:06.480Z,83.1
2018-07-20T03:59:08.157Z,83.2
2018-07-20T04:00:09.862Z,83.1
2018-07-20T04:01:11.525Z,83.3
2018-07-20T04:02:13.528Z,83.0
2018-07-20T04:03:15.241Z,83.0
2018-07-20T04:04:16.873Z,83.1
2018-07-20T04:05:18.570Z,83.1
2018-07-20T04:06:20.336Z,83.1
2018-07-20T04:07:22.021Z,83.1
2018-07-20T04:08:23.880Z,83.0
2018-07-20T04:09:25.814Z,83.5
2018-07-20T04:10:27.649Z,83.9
2018-07-20T04:11:29.314Z,83.5
2018-07-20T04:12:31.231Z,83.6
2018-07-20T04:13:32.880Z,83.1
2018-07-20T04:14:34.551Z,83.2
2018-07-20T04:15:36.233Z,83.1
2018-07-20T04:16:37.908Z,83.1
2018-07-20T04:17:39.648Z,82.8
2018-07-20T04:18:41.462Z,82.8
2018-07-20T04:19:43.184Z,83.4
2018-07-20T04:20:45.071Z,83.1
2018-07-20T04:21:46.748Z,83.3
2018-07-20T04:22:48.540Z,83.8
2018-07-20T04:23:50.246Z,83.2
2018-07-20T04:24:51.990Z,83.2
2018-07-20T04:25:53.777Z,83.0
2018-07-20T04:26:56.131Z,83.0
2018-07-20T04:27:57.885Z,83.1
2018-07-20T04:28:59.514Z,82.7
2018-07-20T04:30:01.229Z,83.2
2018-07-20T04:31:02.975Z,83.5
2018-07-20T04:32:04.673Z,83.3
2018-07-20T04:33:06.377Z,83.2
2018-07-20T04:34:08.139Z,83.0
2018-07-20T04:35:09.832Z,83.6
2018-07-20T04:36:11.670Z,84.0
2018-07-20T04:37:13.396Z,84.4
2018-07-20T04:38:15.122Z,84.1
2018-07-20T04:39:16.935Z,83.7
2018-07-20T04:40:18.734Z,83.1
2018-07-20T04:41:20.533Z,83.1
2018-07-20T04:42:22.159Z,82.8
2018-07-20T04:43:23.847Z,82.6
2018-07-20T04:44:26.166Z,81.6
2018-07-20T04:45:27.922Z,81.9
2018-07-20T04:46:29.689Z,81.4
2018-07-20T04:47:31.401Z,80.6
2018-07-20T04:48:33.076Z,81.1
2018-07-20T04:49:34.763Z,80.9
2018-07-20T04:50:36.527Z,81.3
2018-07-20T04:51:38.277Z,80.6
2018-07-20T04:52:40.036Z,80.7
2018-07-20T04:53:41.751Z,80.0
2018-07-20T04:54:43.483Z,80.0
2018-07-20T04:55:45.285Z,79.9
2018-07-20T04:56:47.131Z,79.6
2018-07-20T04:57:48.808Z,79.2
2018-07-20T04:58:50.582Z,77.7
2018-07-20T04:59:52.298Z,77.1
2018-07-20T05:00:54.087Z,77.3
2018-07-20T05:01:55.799Z,77.1
2018-07-20T05:02:57.624Z,76.8
2018-07-20T05:03:59.301Z,76.9
2018-07-20T05:05:00.997Z,77.1
2018-07-20T05:06:02.746Z,76.6
2018-07-20T05:07:04.468Z,75.5
2018-07-20T05:08:06.248Z,74.5
2018-07-20T05:09:07.989Z,74.0
2018-07-20T05:10:09.736Z,73.9
2018-07-20T05:11:11.428Z,73.0
2018-07-20T05:12:13.159Z,72.9
2018-07-20T05:13:14.901Z,72.7
2018-07-20T05:14:16.631Z,72.3
2018-07-20T05:15:18.404Z,72.1
2018-07-20T05:16:20.079Z,71.8
2018-07-20T05:17:21.876Z,71.4
2018-07-20T05:18:23.605Z,70.9
2018-07-20T05:19:25.430Z,68.9
2018-07-20T05:20:27.169Z,68.5
2018-07-20T05:21:28.932Z,67.8
2018-07-20T05:22:30.756Z,68.6
2018-07-20T05:23:32.536Z,68.6
2018-07-20T05:24:34.281Z,68.6
2018-07-20T05:25:36.068Z,67.8
2018-07-20T05:26:37.888Z,66.8
2018-07-20T05:27:39.657Z,66.2
2018-07-20T05:28:41.422Z,65.1
2018-07-20T05:29:43.097Z,65.0
2018-07-20T05:30:44.717Z,64.1
2018-07-20T05:31:46.516Z,61.8
2018-07-20T05:32:48.328Z,61.4
2018-07-20T05:33:50.095Z,60.3
2018-07-20T05:34:51.893Z,59.9
2018-07-20T05:35:53.698Z,60.4
2018-07-20T05:36:55.443Z,59.1
2018-07-20T05:37:57.094Z,59.2
2018-07-20T05:38:58.911Z,60.7
2018-07-20T05:40:00.594Z,61.2
2018-07-20T05:41:02.311Z,59.1
2018-07-20T05:42:04.104Z,57.8
2018-07-20T05:43:05.903Z,57.6
2018-07-20T05:44:07.823Z,60.4
2018-07-20T05:45:09.378Z,60.6
2018-07-20T05:46:11.155Z,60.9
2018-07-20T05:47:12.858Z,60.4
2018-07-20T05:48:14.544Z,60.6
2018-07-20T05:49:16.205Z,60.5
2018-07-20T05:50:17.945Z,60.6
2018-07-20T05:51:19.646Z,61.5
2018-07-20T05:52:21.435Z,62.6
2018-07-20T05:53:23.314Z,61.7
2018-07-20T05:54:24.954Z,61.6
2018-07-20T05:55:26.673Z,61.8
2018-07-20T05:56:28.447Z,62.0
2018-07-20T05:57:30.104Z,61.1
2018-07-20T05:58:31.843Z,61.9
2018-07-20T05:59:33.596Z,61.1
2018-07-20T06:00:35.403Z,61.3
2018-07-20T06:01:37.194Z,61.5
2018-07-20T06:02:38.922Z,61.4
2018-07-20T06:03:40.711Z,60.6
2018-07-20T06:04:42.359Z,61.0
2018-07-20T06:05:44.152Z,60.8
2018-07-20T06:06:45.924Z,61.7
2018-07-20T06:07:47.753Z,61.4
2018-07-20T06:08:49.530Z,61.8
2018-07-20T06:09:51.266Z,60.6
2018-07-20T06:10:52.908Z,60.6
2018-07-20T06:11:54.578Z,60.5
2018-07-20T06:12:56.374Z,60.9
2018-07-20T06:13:58.169Z,59.9
2018-07-20T06:14:59.897Z,59.4
2018-07-20T06:16:01.547Z,59.0
2018-07-20T06:17:03.327Z,58.9
2018-07-20T06:18:05.126Z,58.0
2018-07-20T06:19:06.876Z,58.2
2018-07-20T06:20:08.648Z,58.2
2018-07-20T06:21:10.506Z,58.5
2018-07-20T06:22:12.244Z,57.0
2018-07-20T06:23:14.063Z,56.2
2018-07-20T06:24:15.834Z,56.7
2018-07-20T06:25:17.454Z,57.5
2018-07-20T06:26:19.263Z,56.3
2018-07-20T06:27:20.960Z,56.1
2018-07-20T06:28:22.713Z,56.8
2018-07-20T06:29:24.396Z,57.3
2018-07-20T06:30:26.120Z,56.7
2018-07-20T06:31:27.904Z,56.7
2018-07-20T06:32:29.702Z,55.9
2018-07-20T06:33:31.508Z,54.3
2018-07-20T06:34:33.331Z,54.6
2018-07-20T06:35:35.189Z,54.0
2018-07-20T06:36:37.092Z,53.9
2018-07-20T06:37:38.976Z,53.5
2018-07-20T06:38:40.720Z,52.8
2018-07-20T06:39:42.400Z,50.9
2018-07-20T06:40:44.099Z,50.5
2018-07-20T06:41:45.862Z,49.9
2018-07-20T06:42:47.679Z,50.8
2018-07-20T06:43:49.621Z,49.4
2018-07-20T06:44:51.275Z,50.0
2018-07-20T06:45:52.956Z,49.7
2018-07-20T06:46:54.836Z,49.2
2018-07-20T06:47:56.644Z,48.6
2018-07-20T06:48:58.427Z,48.7
2018-07-20T06:50:00.214Z,49.7
2018-07-20T06:51:02.032Z,49.4
2018-07-20T06:52:03.872Z,49.4
2018-07-20T06:53:05.683Z,48.0
2018-07-20T06:54:07.542Z,46.0
2018-07-20T06:55:09.365Z,48.3
2018-07-20T06:56:11.119Z,49.0
2018-07-20T06:57:12.820Z,48.9
2018-07-20T06:58:14.599Z,47.4
2018-07-20T06:59:16.284Z,46.5
2018-07-20T07:00:18.135Z,46.1
2018-07-20T07:01:19.991Z,44.9
2018-07-20T07:02:21.751Z,44.4
2018-07-20T07:03:23.473Z,45.9
2018-07-20T07:04:25.370Z,45.3
2018-07-20T07:05:27.128Z,45.2
2018-07-20T07:06:28.814Z,43.9
2018-07-20T07:07:30.604Z,44.4
2018-07-20T07:08:32.430Z,43.9
2018-07-20T07:09:34.243Z,43.4
2018-07-20T07:10:35.985Z,42.1
2018-07-20T07:11:37.931Z,42.4
2018-07-20T07:12:39.768Z,43.3
2018-07-20T07:13:41.486Z,42.2
2018-07-20T07:14:43.297Z,41.4
2018-07-20T07:15:45.051Z,42.7
2018-07-20T07:16:46.806Z,42.1
2018-07-20T07:17:48.480Z,41.4
2018-07-20T07:18:50.349Z,40.8
2018-07-20T07:19:52.200Z,40.8
2018-07-20T07:20:54.006Z,40.7
2018-07-20T07:21:55.761Z,40.2
2018-07-20T07:22:57.555Z,39.8
2018-07-20T07:23:59.249Z,39.3
2018-07-20T07:25:01.046Z,38.4
2018-07-20T07:26:02.914Z,38.1
2018-07-20T07:27:04.574Z,37.3
2018-07-20T07:28:06.287Z,37.3
2018-07-20T07:29:08.131Z,35.5
2018-07-20T07:30:09.848Z,37.4
2018-07-20T07:31:11.704Z,38.5
2018-07-20T07:32:13.628Z,39.0
2018-07-20T07:33:15.428Z,38.0
2018-07-20T07:34:17.146Z,37.2
2018-07-20T07:35:18.977Z,36.6
2018-07-20T07:36:20.783Z,35.5
2018-07-20T07:37:22.443Z,35.9
2018-07-20T07:38:24.231Z,36.8
2018-07-20T07:39:26.135Z,37.0
2018-07-20T07:40:28.014Z,35.4
2018-07-20T07:41:29.793Z,35.8
2018-07-20T07:42:31.556Z,35.4
2018-07-20T07:43:33.349Z,33.0
2018-07-20T07:44:35.102Z,31.5
2018-07-20T07:45:36.942Z,32.8
2018-07-20T07:46:38.728Z,34.1
2018-07-20T07:47:40.470Z,33.6
2018-07-20T07:48:42.315Z,34.4
2018-07-20T07:49:44.266Z,34.0
2018-07-20T07:50:45.952Z,34.2
2018-07-20T07:51:47.783Z,33.2
2018-07-20T07:52:49.594Z,33.5
2018-07-20T07:53:51.295Z,33.0
2018-07-20T07:54:53.373Z,32.3
2018-07-20T07:55:54.978Z,33.2
2018-07-20T07:56:56.767Z,33.0
2018-07-20T07:57:58.614Z,33.4
2018-07-20T07:59:00.516Z,33.4
2018-07-20T08:00:02.315Z,33.2
2018-07-20T08:01:04.089Z,32.5
2018-07-20T08:02:05.830Z,31.6
2018-07-20T08:03:07.567Z,31.5
2018-07-20T08:04:09.387Z,31.7
2018-07-20T08:05:11.345Z,31.3
2018-07-20T08:06:13.178Z,32.3
2018-07-20T08:07:15.088Z,32.1
2018-07-20T08:08:16.976Z,31.9
2018-07-20T08:09:18.705Z,33.8
2018-07-20T08:10:20.705Z,32.3
2018-07-20T08:11:22.493Z,32.1
2018-07-20T08:12:24.435Z,33.1
2018-07-20T08:13:26.204Z,32.6
2018-07-20T08:14:27.925Z,30.7
2018-07-20T08:15:29.672Z,31.1
2018-07-20T08:16:31.474Z,30.4
2018-07-20T08:17:33.164Z,30.5
2018-07-20T08:18:34.877Z,30.1
2018-07-20T08:19:36.708Z,29.0
2018-07-20T08:20:38.524Z,29.4
2018-07-20T08:21:40.360Z,27.8
2018-07-20T08:22:42.057Z,28.2
2018-07-20T08:23:43.859Z,29.2
2018-07-20T08:24:45.595Z,29.1
2018-07-20T08:25:47.697Z,28.5
2018-07-20T08:26:49.508Z,30.1
2018-07-20T08:27:51.233Z,30.3
2018-07-20T08:28:53.000Z,29.8
2018-07-20T08:29:54.820Z,30.9
2018-07-20T08:30:56.782Z,30.7
2018-07-20T08:31:58.827Z,31.3
2018-07-20T08:33:00.637Z,31.8
2018-07-20T08:34:02.705Z,30.5
2018-07-20T08:35:04.423Z,31.1
2018-07-20T08:36:06.242Z,29.5
2018-07-20T08:37:07.952Z,30.7
2018-07-20T08:38:09.744Z,30.7
2018-07-20T08:39:11.572Z,30.4
2018-07-20T08:40:13.378Z,29.8
2018-07-20T08:41:15.134Z,29.1
2018-07-20T08:42:17.120Z,28.1
2018-07-20T08:43:18.872Z,27.9
2018-07-20T08:44:20.859Z,27.5
2018-07-20T08:45:22.662Z,29.5
2018-07-20T08:46:24.526Z,29.6
2018-07-20T08:47:26.314Z,28.8
2018-07-20T08:48:28.336Z,28.2
2018-07-20T08:49:30.183Z,30.4
2018-07-20T08:50:31.904Z,29.1
2018-07-20T08:51:33.764Z,28.0
2018-07-20T08:52:35.701Z,29.2
2018-07-20T08:53:37.504Z,29.5
2018-07-20T08:54:39.363Z,29.5
2018-07-20T08:55:41.213Z,28.9
2018-07-20T08:56:43.038Z,28.4
2018-07-20T08:57:45.142Z,28.2
2018-07-20T08:58:46.930Z,27.6
2018-07-20T08:59:48.712Z,25.9
2018-07-20T09:00:50.448Z,27.4
2018-07-20T09:01:52.223Z,28.1
2018-07-20T09:02:54.038Z,29.2
2018-07-20T09:03:56.593Z,30.7
2018-07-20T09:04:58.360Z,29.1
2018-07-20T09:06:00.252Z,25.9
2018-07-20T09:07:02.062Z,27.1
2018-07-20T09:08:03.916Z,27.5
2018-07-20T09:09:05.779Z,26.3
2018-07-20T09:10:07.585Z,26.0
2018-07-20T09:11:09.441Z,24.9
2018-07-20T09:12:11.206Z,25.8
2018-07-20T09:13:13.016Z,25.3
2018-07-20T09:14:14.815Z,25.3
2018-07-20T09:15:16.942Z,24.1
2018-07-20T09:16:18.822Z,24.9
2018-07-20T09:17:20.860Z,25.1
2018-07-20T09:18:22.708Z,25.0
2018-07-20T09:19:24.572Z,26.8
2018-07-20T09:20:26.642Z,26.3
2018-07-20T09:21:28.693Z,24.7
2018-07-20T09:22:30.479Z,23.9
2018-07-20T09:23:32.224Z,23.3
2018-07-20T09:24:33.939Z,23.9
2018-07-20T09:25:35.872Z,22.9
2018-07-20T09:26:37.745Z,25.2
2018-07-20T09:27:39.606Z,25.4
2018-07-20T09:28:41.372Z,25.3
2018-07-20T09:29:43.139Z,25.3
2018-07-20T09:30:44.956Z,23.7
2018-07-20T09:31:46.821Z,23.1
2018-07-20T09:32:48.615Z,24.9
2018-07-20T09:33:50.749Z,25.0
2018-07-20T09:34:52.567Z,25.0
2018-07-20T09:35:54.435Z,24.7
2018-07-20T09:36:56.248Z,25.1
2018-07-20T09:37:58.030Z,23.0
2018-07-20T09:39:00.044Z,23.1
2018-07-20T09:40:01.932Z,24.4
2018-07-20T09:41:03.881Z,25.1
2018-07-20T09:42:05.652Z,23.9
2018-07-20T09:43:07.468Z,24.5
2018-07-20T09:44:09.296Z,23.8
2018-07-20T09:45:11.052Z,24.9
2018-07-20T09:46:12.832Z,24.0
2018-07-20T09:47:14.827Z,23.0
2018-07-20T09:48:16.607Z,24.0
2018-07-20T09:49:18.374Z,23.2
2018-07-20T09:50:20.104Z,23.1
2018-07-20T09:51:22.053Z,22.8
2018-07-20T09:52:24.059Z,23.2
2018-07-20T09:53:26.574Z,23.7
2018-07-20T09:54:28.384Z,23.9
2018-07-20T09:55:30.184Z,24.1
2018-07-20T09:56:31.984Z,22.9
2018-07-20T09:57:33.811Z,22.9
2018-07-20T09:58:35.616Z,23.2
2018-07-20T09:59:37.418Z,23.7
2018-07-20T10:00:39.179Z,21.9
2018-07-20T10:01:40.910Z,21.8
2018-07-20T10:02:42.766Z,22.1
2018-07-20T10:03:44.629Z,22.6
2018-07-20T10:04:46.886Z,22.8
2018-07-20T10:05:48.751Z,22.3
2018-07-20T10:06:50.627Z,23.5
2018-07-20T10:07:52.514Z,23.2
2018-07-20T10:08:54.628Z,22.7
2018-07-20T10:09:56.469Z,22.8
2018-07-20T10:10:58.315Z,21.9
2018-07-20T10:12:01.242Z,20.1
2018-07-20T10:13:02.921Z,20.3
2018-07-20T10:14:04.662Z,20.4
2018-07-20T10:15:06.525Z,22.9
2018-07-20T10:16:08.375Z,23.4
2018-07-20T10:17:10.589Z,22.9
2018-07-20T10:18:12.833Z,23.0
2018-07-20T10:19:14.655Z,21.7
2018-07-20T10:20:16.568Z,22.3
2018-07-20T10:21:18.746Z,21.3
2018-07-20T10:22:20.422Z,22.8
2018-07-20T10:23:22.496Z,22.5
2018-07-20T10:24:24.439Z,22.2
2018-07-20T10:25:26.465Z,20.7
2018-07-20T10:26:28.370Z,20.7
2018-07-20T10:27:30.172Z,21.3
2018-07-20T10:28:32.211Z,21.4
2018-07-20T10:29:34.290Z,20.2
2018-07-20T10:30:36.168Z,20.0
2018-07-20T10:31:37.924Z,21.2
2018-07-20T10:32:39.824Z,21.0
2018-07-20T10:33:41.809Z,21.4
2018-07-20T10:34:43.712Z,20.6
2018-07-20T10:35:45.617Z,20.3
2018-07-20T10:36:47.408Z,19.3
2018-07-20T10:37:49.257Z,19.7
2018-07-20T10:38:51.035Z,20.1
2018-07-20T10:39:52.876Z,21.4
2018-07-20T10:40:54.682Z,21.0
2018-07-20T10:41:56.939Z,21.4
2018-07-20T10:42:58.716Z,21.2
2018-07-20T10:44:00.464Z,21.8
2018-07-20T10:45:01.939Z,21.3
2018-07-20T10:46:03.638Z,20.8
2018-07-20T10:47:05.450Z,20.9
2018-07-20T10:48:07.286Z,21.3
2018-07-20T10:49:09.028Z,21.4
2018-07-20T10:50:10.899Z,20.9
2018-07-20T10:51:12.648Z,20.6
2018-07-20T10:52:14.574Z,21.8
2018-07-20T10:53:16.310Z,21.1
2018-07-20T10:54:18.010Z,22.5
2018-07-20T10:55:19.737Z,22.7
2018-07-20T10:56:21.551Z,22.7
2018-07-20T10:57:23.862Z,21.4
2018-07-20T10:58:25.873Z,22.0
2018-07-20T10:59:27.665Z,21.8
2018-07-20T11:00:29.386Z,21.6
2018-07-20T11:01:31.525Z,21.7
2018-07-20T11:02:33.542Z,22.3
2018-07-20T11:03:35.442Z,21.4
2018-07-20T11:04:37.148Z,22.9
2018-07-20T11:05:39.044Z,24.1
2018-07-20T11:06:40.727Z,23.1
2018-07-20T11:07:42.505Z,21.7
2018-07-20T11:08:44.319Z,21.3
2018-07-20T11:09:46.225Z,21.4
2018-07-20T11:10:47.971Z,20.8
2018-07-20T11:11:50.005Z,21.1
2018-07-20T11:12:51.728Z,19.9
2018-07-20T11:13:53.520Z,20.6
2018-07-20T11:14:55.295Z,19.3
2018-07-20T11:15:57.248Z,19.3
2018-07-20T11:16:59.298Z,19.8
2018-07-20T11:18:01.119Z,21.6
2018-07-20T11:19:02.885Z,19.4
2018-07-20T11:20:04.662Z,19.3
2018-07-20T11:21:06.440Z,18.8
2018-07-20T11:22:08.218Z,18.7
2018-07-20T11:23:09.962Z,18.6
2018-07-20T11:24:11.697Z,17.8
2018-07-20T11:25:14.357Z,19.1
2018-07-20T11:26:16.353Z,19.4
2018-07-20T11:27:18.097Z,17.7
2018-07-20T11:28:20.095Z,18.1
2018-07-20T11:29:21.727Z,20.1
2018-07-20T11:30:23.577Z,19.4
2018-07-20T11:31:25.409Z,18.7
2018-07-20T11:32:27.190Z,18.0
2018-07-20T11:33:29.023Z,17.5
2018-07-20T11:34:30.775Z,18.6
2018-07-20T11:35:32.806Z,18.4
2018-07-20T11:36:34.552Z,19.6
2018-07-20T11:37:36.398Z,18.8
2018-07-20T11:38:38.152Z,18.4
2018-07-20T11:39:39.862Z,18.4
2018-07-20T11:40:42.722Z,18.1
2018-07-20T11:41:44.705Z,18.6
2018-07-20T11:42:46.520Z,20.5
2018-07-20T11:43:48.218Z,19.1
2018-07-20T11:44:49.909Z,18.7
2018-07-20T11:45:51.657Z,19.6
2018-07-20T11:46:53.346Z,20.0
2018-07-20T11:47:55.121Z,19.5
2018-07-20T11:48:57.026Z,18.8
2018-07-20T11:49:58.791Z,18.5
2018-07-20T11:51:00.579Z,18.5
2018-07-20T11:52:02.394Z,19.6
2018-07-20T11:53:04.185Z,18.4
2018-07-20T11:54:05.957Z,18.5
2018-07-20T11:55:07.657Z,17.5
2018-07-20T11:56:09.541Z,19.3
2018-07-20T11:57:11.446Z,18.2
2018-07-20T11:58:13.438Z,19.4
2018-07-20T11:59:15.201Z,19.9
2018-07-20T12:00:17.220Z,20.5
2018-07-20T12:01:18.920Z,21.5
2018-07-20T12:02:20.630Z,21.0
2018-07-20T12:03:22.700Z,20.3
2018-07-20T12:04:24.444Z,18.4
2018-07-20T12:05:26.180Z,17.7
2018-07-20T12:06:28.045Z,20.7
2018-07-20T12:07:29.895Z,20.4
2018-07-20T12:08:31.679Z,21.4
2018-07-20T12:09:33.531Z,21.5
2018-07-20T12:10:35.269Z,19.4
2018-07-20T12:11:37.143Z,19.7
2018-07-20T12:12:38.896Z,18.0
2018-07-20T12:13:40.942Z,17.5
2018-07-20T12:14:42.757Z,19.0
2018-07-20T12:15:44.478Z,17.4
2018-07-20T12:16:46.228Z,15.9
2018-07-20T12:17:47.971Z,18.4
2018-07-20T12:18:49.740Z,18.1
2018-07-20T12:19:51.476Z,17.0
2018-07-20T12:20:53.138Z,16.0
2018-07-20T12:21:54.966Z,16.0
2018-07-20T12:22:56.707Z,15.7
2018-07-20T12:23:58.472Z,16.3
2018-07-20T12:25:00.310Z,17.3
2018-07-20T12:26:03.411Z,17.4
2018-07-20T12:27:05.238Z,17.0
2018-07-20T12:28:07.043Z,17.7
2018-07-20T12:29:08.765Z,17.8
2018-07-20T12:30:10.529Z,15.9
2018-07-20T12:31:12.237Z,16.2
2018-07-20T12:32:13.934Z,16.9
2018-07-20T12:33:15.716Z,16.2
2018-07-20T12:34:17.436Z,16.4
2018-07-20T12:35:19.159Z,16.3
2018-07-20T12:36:20.836Z,16.7
2018-07-20T12:37:22.637Z,17.4
2018-07-20T12:38:24.334Z,16.7
2018-07-20T12:39:26.087Z,17.2
2018-07-20T12:40:27.785Z,16.9
2018-07-20T12:41:29.439Z,15.4
2018-07-20T12:42:31.214Z,16.1
2018-07-20T12:43:32.823Z,15.9
2018-07-20T12:44:34.997Z,14.3
2018-07-20T12:45:37.300Z,16.4
2018-07-20T12:46:39.109Z,17.0
2018-07-20T12:47:40.656Z,17.2
2018-07-20T12:48:42.367Z,17.4
2018-07-20T12:49:44.660Z,14.9
2018-07-20T12:50:46.615Z,14.0
2018-07-20T12:51:48.398Z,14.4
2018-07-20T12:52:50.539Z,13.6
2018-07-20T12:53:52.241Z,15.1
2018-07-20T12:54:53.861Z,16.5
2018-07-20T12:55:55.619Z,16.2
2018-07-20T12:56:57.348Z,15.7
2018-07-20T12:57:59.398Z,17.2
2018-07-20T12:59:01.075Z,17.8
2018-07-20T13:00:02.842Z,17.4
2018-07-20T13:01:04.731Z,17.4
2018-07-20T13:02:06.308Z,18.3
2018-07-20T13:03:08.135Z,18.7
2018-07-20T13:04:09.833Z,20.2
2018-07-20T13:05:11.634Z,21.2
2018-07-20T13:06:13.424Z,21.3
2018-07-20T13:07:15.167Z,19.6
2018-07-20T13:08:17.063Z,20.3
2018-07-20T13:09:18.818Z,19.3
2018-07-20T13:10:20.531Z,17.8
2018-07-20T13:11:22.306Z,17.1
2018-07-20T13:12:24.079Z,17.6
2018-07-20T13:13:25.766Z,17.6
2018-07-20T13:14:27.484Z,19.0
2018-07-20T13:15:29.251Z,19.7
2018-07-20T13:16:30.921Z,19.4
2018-07-20T13:17:32.669Z,19.7
2018-07-20T13:18:34.369Z,19.7
2018-07-20T13:19:36.100Z,20.7
2018-07-20T13:20:37.821Z,20.6
2018-07-20T13:21:39.563Z,22.3
2018-07-20T13:22:41.233Z,21.5
2018-07-20T13:23:42.957Z,22.1
2018-07-20T13:24:44.676Z,21.5
2018-07-20T13:25:46.344Z,21.5
2018-07-20T13:26:48.090Z,20.8
2018-07-20T13:27:49.802Z,21.1
2018-07-20T13:28:51.485Z,20.3
2018-07-20T13:29:53.301Z,19.7
2018-07-20T13:30:55.109Z,19.9
2018-07-20T13:31:56.888Z,20.9
2018-07-20T13:32:58.552Z,20.1
2018-07-20T13:34:00.278Z,19.5
2018-07-20T13:35:02.067Z,19.7
2018-07-20T13:36:03.698Z,18.3
2018-07-20T13:37:05.381Z,21.0
2018-07-20T13:38:07.377Z,20.0
2018-07-20T13:39:09.081Z,20.1
2018-07-20T13:40:11.018Z,19.4
2018-07-20T13:41:12.701Z,18.6
2018-07-20T13:42:14.425Z,18.2